Terminal Aerodrome Forecast
Issued by NWS

Home | Current Version | Previous Version | Text Only | Print | Product List | Glossary On
Versions: 1 2 3 4 5 6 7 8 9 10 11 12 13 14 15
000
FTUS43 KPAH 250800 AAA
TAFCGI
TAF AMD
KCGI 250821Z 2508/2606 00000KT 5SM BCFG BR SKC
     FM251300 18003KT P6SM SKC
     FM251500 18005KT P6SM SCT250
     FM260000 VRB03KT P6SM SCT150=

USA.gov is the U.S. government's official web portal to all federal, state and local government web resources and services.